sensor_id;sensor_type;location;lat;lon;timestamp;P1;durP1;ratioP1;P2;durP2;ratioP2
38549;SDS011;24322;52.004;5.948;2022-08-19T00:01:31;5.55;;;3.95;;
38549;SDS011;24322;52.004;5.948;2022-08-19T00:04:00;7.95;;;4.47;;
38549;SDS011;24322;52.004;5.948;2022-08-19T00:06:28;6.82;;;4.25;;
38549;SDS011;24322;52.004;5.948;2022-08-19T00:08:55;7.38;;;4.22;;
38549;SDS011;24322;52.004;5.948;2022-08-19T00:11:21;5.93;;;3.63;;
38549;SDS011;24322;52.004;5.948;2022-08-19T00:13:47;5.90;;;3.75;;
38549;SDS011;24322;52.004;5.948;2022-08-19T00:16:15;6.30;;;4.00;;
38549;SDS011;24322;52.004;5.948;2022-08-19T00:18:43;8.75;;;4.53;;
38549;SDS011;24322;52.004;5.948;2022-08-19T00:21:08;9.52;;;5.25;;
38549;SDS011;24322;52.004;5.948;2022-08-19T00:23:34;8.60;;;5.18;;
38549;SDS011;24322;52.004;5.948;2022-08-19T00:26:01;7.65;;;4.00;;
38549;SDS011;24322;52.004;5.948;2022-08-19T00:28:30;7.43;;;4.03;;
38549;SDS011;24322;52.004;5.948;2022-08-19T00:30:58;9.43;;;4.90;;
38549;SDS011;24322;52.004;5.948;2022-08-19T00:33:24;7.68;;;4.85;;
38549;SDS011;24322;52.004;5.948;2022-08-19T00:35:50;8.10;;;5.20;;
38549;SDS011;24322;52.004;5.948;2022-08-19T00:38:15;8.45;;;4.93;;
38549;SDS011;24322;52.004;5.948;2022-08-19T00:40:44;10.13;;;5.60;;
38549;SDS011;24322;52.004;5.948;2022-08-19T00:43:12;7.97;;;5.13;;
38549;SDS011;24322;52.004;5.948;2022-08-19T00:45:43;8.45;;;4.88;;
38549;SDS011;24322;52.004;5.948;2022-08-19T00:48:09;8.68;;;5.20;;
38549;SDS011;24322;52.004;5.948;2022-08-19T00:50:35;8.35;;;5.55;;
38549;SDS011;24322;52.004;5.948;2022-08-19T00:53:02;8.70;;;5.40;;
38549;SDS011;24322;52.004;5.948;2022-08-19T00:55:29;8.02;;;4.88;;
38549;SDS011;24322;52.004;5.948;2022-08-19T00:57:59;11.55;;;5.20;;
38549;SDS011;24322;52.004;5.948;2022-08-19T01:00:31;7.60;;;4.75;;
38549;SDS011;24322;52.004;5.948;2022-08-19T01:03:00;9.45;;;6.13;;
38549;SDS011;24322;52.004;5.948;2022-08-19T01:05:26;8.20;;;5.10;;
38549;SDS011;24322;52.004;5.948;2022-08-19T01:07:54;9.65;;;4.97;;
38549;SDS011;24322;52.004;5.948;2022-08-19T01:10:23;7.93;;;4.78;;
38549;SDS011;24322;52.004;5.948;2022-08-19T01:12:52;9.27;;;5.63;;
38549;SDS011;24322;52.004;5.948;2022-08-19T01:15:20;9.57;;;5.63;;
38549;SDS011;24322;52.004;5.948;2022-08-19T01:17:49;7.90;;;5.25;;
38549;SDS011;24322;52.004;5.948;2022-08-19T01:20:17;9.10;;;5.82;;
38549;SDS011;24322;52.004;5.948;2022-08-19T01:22:49;8.77;;;5.50;;
38549;SDS011;24322;52.004;5.948;2022-08-19T01:25:20;10.15;;;5.15;;
38549;SDS011;24322;52.004;5.948;2022-08-19T01:27:49;9.43;;;5.70;;
38549;SDS011;24322;52.004;5.948;2022-08-19T01:30:19;9.48;;;5.90;;
38549;SDS011;24322;52.004;5.948;2022-08-19T01:32:51;8.23;;;5.45;;
38549;SDS011;24322;52.004;5.948;2022-08-19T01:35:18;9.45;;;5.47;;
38549;SDS011;24322;52.004;5.948;2022-08-19T01:37:47;9.75;;;5.60;;
38549;SDS011;24322;52.004;5.948;2022-08-19T01:40:23;11.32;;;6.40;;
38549;SDS011;24322;52.004;5.948;2022-08-19T01:42:51;9.00;;;5.43;;
38549;SDS011;24322;52.004;5.948;2022-08-19T01:45:18;10.38;;;5.80;;
38549;SDS011;24322;52.004;5.948;2022-08-19T01:47:45;10.48;;;5.50;;
38549;SDS011;24322;52.004;5.948;2022-08-19T01:50:11;13.35;;;7.65;;
38549;SDS011;24322;52.004;5.948;2022-08-19T01:52:39;10.27;;;6.90;;
38549;SDS011;24322;52.004;5.948;2022-08-19T01:55:07;12.77;;;5.93;;
38549;SDS011;24322;52.004;5.948;2022-08-19T01:57:36;10.45;;;6.53;;
38549;SDS011;24322;52.004;5.948;2022-08-19T02:00:07;10.85;;;5.88;;
38549;SDS011;24322;52.004;5.948;2022-08-19T02:02:35;8.65;;;5.75;;
38549;SDS011;24322;52.004;5.948;2022-08-19T02:05:00;12.18;;;6.18;;
38549;SDS011;24322;52.004;5.948;2022-08-19T02:07:26;8.80;;;5.70;;
38549;SDS011;24322;52.004;5.948;2022-08-19T02:09:53;10.18;;;6.15;;
38549;SDS011;24322;52.004;5.948;2022-08-19T02:12:20;10.75;;;6.35;;
38549;SDS011;24322;52.004;5.948;2022-08-19T02:14:46;11.23;;;6.20;;
38549;SDS011;24322;52.004;5.948;2022-08-19T02:17:11;10.20;;;6.30;;
38549;SDS011;24322;52.004;5.948;2022-08-19T02:19:37;9.00;;;5.28;;
38549;SDS011;24322;52.004;5.948;2022-08-19T02:22:03;9.23;;;6.00;;
38549;SDS011;24322;52.004;5.948;2022-08-19T02:24:29;9.15;;;5.28;;
38549;SDS011;24322;52.004;5.948;2022-08-19T02:26:54;10.35;;;6.68;;
38549;SDS011;24322;52.004;5.948;2022-08-19T02:29:20;11.18;;;6.38;;
38549;SDS011;24322;52.004;5.948;2022-08-19T02:31:46;11.20;;;6.75;;
38549;SDS011;24322;52.004;5.948;2022-08-19T02:34:12;10.18;;;5.85;;
38549;SDS011;24322;52.004;5.948;2022-08-19T02:36:37;11.20;;;6.20;;
38549;SDS011;24322;52.004;5.948;2022-08-19T02:39:03;8.85;;;5.30;;
38549;SDS011;24322;52.004;5.948;2022-08-19T02:41:30;10.75;;;6.60;;
38549;SDS011;24322;52.004;5.948;2022-08-19T02:43:58;10.25;;;6.07;;
38549;SDS011;24322;52.004;5.948;2022-08-19T02:46:26;10.45;;;6.50;;
38549;SDS011;24322;52.004;5.948;2022-08-19T02:48:55;11.52;;;6.97;;
38549;SDS011;24322;52.004;5.948;2022-08-19T02:51:26;9.32;;;6.10;;
38549;SDS011;24322;52.004;5.948;2022-08-19T02:53:55;10.75;;;5.38;;
38549;SDS011;24322;52.004;5.948;2022-08-19T02:56:21;10.38;;;5.70;;
38549;SDS011;24322;52.004;5.948;2022-08-19T02:58:49;12.73;;;7.35;;
38549;SDS011;24322;52.004;5.948;2022-08-19T03:01:22;14.02;;;6.82;;
38549;SDS011;24322;52.004;5.948;2022-08-19T03:03:50;10.70;;;6.28;;
38549;SDS011;24322;52.004;5.948;2022-08-19T03:06:17;13.57;;;7.03;;
38549;SDS011;24322;52.004;5.948;2022-08-19T03:08:44;9.73;;;5.60;;
38549;SDS011;24322;52.004;5.948;2022-08-19T03:11:18;11.32;;;6.00;;
38549;SDS011;24322;52.004;5.948;2022-08-19T03:13:46;10.02;;;6.03;;
38549;SDS011;24322;52.004;5.948;2022-08-19T03:16:13;10.30;;;6.25;;
38549;SDS011;24322;52.004;5.948;2022-08-19T03:18:40;10.45;;;5.88;;
38549;SDS011;24322;52.004;5.948;2022-08-19T03:21:05;11.30;;;5.88;;
38549;SDS011;24322;52.004;5.948;2022-08-19T03:23:32;11.38;;;6.72;;
38549;SDS011;24322;52.004;5.948;2022-08-19T03:25:58;11.18;;;7.03;;
38549;SDS011;24322;52.004;5.948;2022-08-19T03:28:24;10.90;;;6.65;;
38549;SDS011;24322;52.004;5.948;2022-08-19T03:30:56;11.45;;;6.72;;
38549;SDS011;24322;52.004;5.948;2022-08-19T03:33:25;9.90;;;6.13;;
38549;SDS011;24322;52.004;5.948;2022-08-19T03:36:11;12.52;;;6.72;;
38549;SDS011;24322;52.004;5.948;2022-08-19T03:38:43;10.77;;;6.30;;
38549;SDS011;24322;52.004;5.948;2022-08-19T03:41:12;11.30;;;6.88;;
38549;SDS011;24322;52.004;5.948;2022-08-19T03:43:40;11.75;;;6.15;;
38549;SDS011;24322;52.004;5.948;2022-08-19T03:46:09;13.55;;;6.97;;
38549;SDS011;24322;52.004;5.948;2022-08-19T03:48:36;10.38;;;5.55;;
38549;SDS011;24322;52.004;5.948;2022-08-19T03:51:03;11.90;;;6.43;;
38549;SDS011;24322;52.004;5.948;2022-08-19T03:53:30;11.25;;;6.90;;
38549;SDS011;24322;52.004;5.948;2022-08-19T03:55:57;10.93;;;6.80;;
38549;SDS011;24322;52.004;5.948;2022-08-19T03:58:25;10.85;;;6.60;;
38549;SDS011;24322;52.004;5.948;2022-08-19T04:00:53;13.00;;;7.20;;
38549;SDS011;24322;52.004;5.948;2022-08-19T04:03:19;9.57;;;5.68;;
38549;SDS011;24322;52.004;5.948;2022-08-19T04:05:45;10.13;;;6.32;;
38549;SDS011;24322;52.004;5.948;2022-08-19T04:08:11;11.15;;;6.22;;
38549;SDS011;24322;52.004;5.948;2022-08-19T04:10:37;9.70;;;5.80;;
38549;SDS011;24322;52.004;5.948;2022-08-19T04:13:03;10.82;;;6.47;;
38549;SDS011;24322;52.004;5.948;2022-08-19T04:15:31;12.05;;;7.07;;
38549;SDS011;24322;52.004;5.948;2022-08-19T04:20:31;12.35;;;6.85;;
38549;SDS011;24322;52.004;5.948;2022-08-19T04:22:56;10.80;;;6.15;;
38549;SDS011;24322;52.004;5.948;2022-08-19T04:25:22;11.57;;;6.72;;
38549;SDS011;24322;52.004;5.948;2022-08-19T04:27:47;11.20;;;6.35;;
38549;SDS011;24322;52.004;5.948;2022-08-19T04:30:14;11.10;;;6.75;;
38549;SDS011;24322;52.004;5.948;2022-08-19T04:32:40;12.57;;;6.25;;
38549;SDS011;24322;52.004;5.948;2022-08-19T04:35:08;14.10;;;7.75;;
38549;SDS011;24322;52.004;5.948;2022-08-19T04:37:34;12.43;;;7.38;;
38549;SDS011;24322;52.004;5.948;2022-08-19T04:39:59;11.65;;;7.28;;
38549;SDS011;24322;52.004;5.948;2022-08-19T04:42:44;12.38;;;7.05;;
38549;SDS011;24322;52.004;5.948;2022-08-19T04:45:13;12.27;;;6.88;;
38549;SDS011;24322;52.004;5.948;2022-08-19T04:47:40;12.00;;;7.82;;
38549;SDS011;24322;52.004;5.948;2022-08-19T04:50:07;12.85;;;8.05;;
38549;SDS011;24322;52.004;5.948;2022-08-19T04:52:37;14.07;;;8.15;;
38549;SDS011;24322;52.004;5.948;2022-08-19T04:55:08;14.60;;;7.38;;
38549;SDS011;24322;52.004;5.948;2022-08-19T04:57:35;14.63;;;7.95;;
38549;SDS011;24322;52.004;5.948;2022-08-19T05:00:03;15.63;;;8.38;;
38549;SDS011;24322;52.004;5.948;2022-08-19T05:02:29;17.02;;;9.30;;
38549;SDS011;24322;52.004;5.948;2022-08-19T05:04:58;12.10;;;7.28;;
38549;SDS011;24322;52.004;5.948;2022-08-19T05:07:26;12.00;;;7.43;;
38549;SDS011;24322;52.004;5.948;2022-08-19T05:09:52;11.48;;;7.15;;
38549;SDS011;24322;52.004;5.948;2022-08-19T05:12:18;13.25;;;8.00;;
38549;SDS011;24322;52.004;5.948;2022-08-19T05:14:44;15.45;;;8.60;;
38549;SDS011;24322;52.004;5.948;2022-08-19T05:17:11;13.27;;;8.73;;
38549;SDS011;24322;52.004;5.948;2022-08-19T05:19:38;15.60;;;8.27;;
38549;SDS011;24322;52.004;5.948;2022-08-19T05:22:22;15.32;;;9.45;;
38549;SDS011;24322;52.004;5.948;2022-08-19T05:24:58;14.75;;;8.85;;
38549;SDS011;24322;52.004;5.948;2022-08-19T05:27:23;12.18;;;6.72;;
38549;SDS011;24322;52.004;5.948;2022-08-19T05:29:49;13.85;;;8.90;;
38549;SDS011;24322;52.004;5.948;2022-08-19T05:32:15;16.02;;;8.95;;
38549;SDS011;24322;52.004;5.948;2022-08-19T05:34:41;14.43;;;9.35;;
38549;SDS011;24322;52.004;5.948;2022-08-19T05:37:07;15.35;;;10.02;;
38549;SDS011;24322;52.004;5.948;2022-08-19T05:39:33;13.98;;;8.70;;
38549;SDS011;24322;52.004;5.948;2022-08-19T05:42:02;14.13;;;8.50;;
38549;SDS011;24322;52.004;5.948;2022-08-19T05:44:31;17.20;;;11.43;;
38549;SDS011;24322;52.004;5.948;2022-08-19T05:46:59;18.35;;;10.63;;
38549;SDS011;24322;52.004;5.948;2022-08-19T05:49:27;13.27;;;7.75;;
38549;SDS011;24322;52.004;5.948;2022-08-19T05:51:53;13.98;;;7.78;;
38549;SDS011;24322;52.004;5.948;2022-08-19T05:54:20;15.48;;;9.00;;
38549;SDS011;24322;52.004;5.948;2022-08-19T05:56:48;13.88;;;8.82;;
38549;SDS011;24322;52.004;5.948;2022-08-19T05:59:15;14.90;;;8.32;;
38549;SDS011;24322;52.004;5.948;2022-08-19T06:01:42;17.70;;;9.63;;
38549;SDS011;24322;52.004;5.948;2022-08-19T06:04:09;14.90;;;8.80;;
38549;SDS011;24322;52.004;5.948;2022-08-19T06:06:36;14.35;;;8.60;;
38549;SDS011;24322;52.004;5.948;2022-08-19T06:09:03;13.20;;;8.02;;
38549;SDS011;24322;52.004;5.948;2022-08-19T06:14:02;16.95;;;9.98;;
38549;SDS011;24322;52.004;5.948;2022-08-19T06:16:30;17.85;;;10.68;;
38549;SDS011;24322;52.004;5.948;2022-08-19T06:19:00;19.83;;;12.00;;
38549;SDS011;24322;52.004;5.948;2022-08-19T06:21:29;31.13;;;18.55;;
38549;SDS011;24322;52.004;5.948;2022-08-19T06:23:55;33.92;;;20.83;;
38549;SDS011;24322;52.004;5.948;2022-08-19T06:26:21;31.38;;;19.95;;
38549;SDS011;24322;52.004;5.948;2022-08-19T06:28:48;29.25;;;19.08;;
38549;SDS011;24322;52.004;5.948;2022-08-19T06:31:14;26.65;;;18.00;;
38549;SDS011;24322;52.004;5.948;2022-08-19T06:33:46;31.30;;;20.20;;
38549;SDS011;24322;52.004;5.948;2022-08-19T06:36:16;31.80;;;20.35;;
38549;SDS011;24322;52.004;5.948;2022-08-19T06:38:56;32.00;;;20.52;;
38549;SDS011;24322;52.004;5.948;2022-08-19T06:41:23;32.00;;;20.23;;
38549;SDS011;24322;52.004;5.948;2022-08-19T06:43:50;36.38;;;22.02;;
38549;SDS011;24322;52.004;5.948;2022-08-19T06:46:16;39.65;;;24.65;;
38549;SDS011;24322;52.004;5.948;2022-08-19T06:48:43;35.03;;;20.08;;
38549;SDS011;24322;52.004;5.948;2022-08-19T06:51:09;37.30;;;23.38;;
38549;SDS011;24322;52.004;5.948;2022-08-19T06:53:35;38.78;;;24.73;;
38549;SDS011;24322;52.004;5.948;2022-08-19T06:56:00;32.92;;;20.55;;
38549;SDS011;24322;52.004;5.948;2022-08-19T06:58:30;44.33;;;26.20;;
38549;SDS011;24322;52.004;5.948;2022-08-19T07:01:00;37.00;;;23.77;;
38549;SDS011;24322;52.004;5.948;2022-08-19T07:03:30;45.65;;;24.58;;
38549;SDS011;24322;52.004;5.948;2022-08-19T07:05:58;50.08;;;26.23;;
38549;SDS011;24322;52.004;5.948;2022-08-19T07:08:28;59.83;;;30.83;;
38549;SDS011;24322;52.004;5.948;2022-08-19T07:10:54;52.40;;;26.40;;
38549;SDS011;24322;52.004;5.948;2022-08-19T07:13:20;51.85;;;27.48;;
38549;SDS011;24322;52.004;5.948;2022-08-19T07:15:47;46.80;;;26.08;;
38549;SDS011;24322;52.004;5.948;2022-08-19T07:18:15;48.17;;;26.45;;
38549;SDS011;24322;52.004;5.948;2022-08-19T07:20:42;56.38;;;30.48;;
38549;SDS011;24322;52.004;5.948;2022-08-19T07:23:08;48.97;;;26.83;;
38549;SDS011;24322;52.004;5.948;2022-08-19T07:25:36;59.95;;;29.42;;
38549;SDS011;24322;52.004;5.948;2022-08-19T07:28:02;67.40;;;34.22;;
38549;SDS011;24322;52.004;5.948;2022-08-19T07:30:28;59.28;;;31.83;;
38549;SDS011;24322;52.004;5.948;2022-08-19T07:32:54;60.92;;;31.30;;
38549;SDS011;24322;52.004;5.948;2022-08-19T07:35:21;56.75;;;31.13;;
38549;SDS011;24322;52.004;5.948;2022-08-19T07:37:48;46.47;;;27.40;;
38549;SDS011;24322;52.004;5.948;2022-08-19T07:40:14;61.63;;;31.75;;
38549;SDS011;24322;52.004;5.948;2022-08-19T07:42:41;49.92;;;28.90;;
38549;SDS011;24322;52.004;5.948;2022-08-19T07:45:08;54.65;;;28.80;;
38549;SDS011;24322;52.004;5.948;2022-08-19T07:47:34;54.00;;;29.77;;
38549;SDS011;24322;52.004;5.948;2022-08-19T07:50:00;49.97;;;30.58;;
38549;SDS011;24322;52.004;5.948;2022-08-19T07:52:25;62.42;;;35.45;;
38549;SDS011;24322;52.004;5.948;2022-08-19T07:54:51;57.88;;;33.38;;
38549;SDS011;24322;52.004;5.948;2022-08-19T07:57:17;55.05;;;35.20;;
38549;SDS011;24322;52.004;5.948;2022-08-19T07:59:43;50.35;;;30.75;;
38549;SDS011;24322;52.004;5.948;2022-08-19T08:02:09;48.15;;;28.30;;
38549;SDS011;24322;52.004;5.948;2022-08-19T08:04:35;54.00;;;31.95;;
38549;SDS011;24322;52.004;5.948;2022-08-19T08:07:19;58.75;;;36.58;;
38549;SDS011;24322;52.004;5.948;2022-08-19T08:10:04;58.50;;;34.55;;
38549;SDS011;24322;52.004;5.948;2022-08-19T08:12:33;68.45;;;38.60;;
38549;SDS011;24322;52.004;5.948;2022-08-19T08:15:07;55.88;;;32.70;;
38549;SDS011;24322;52.004;5.948;2022-08-19T08:17:35;61.88;;;36.10;;
38549;SDS011;24322;52.004;5.948;2022-08-19T08:20:03;54.97;;;33.75;;
38549;SDS011;24322;52.004;5.948;2022-08-19T08:22:31;54.40;;;33.17;;
38549;SDS011;24322;52.004;5.948;2022-08-19T08:25:17;53.60;;;33.53;;
38549;SDS011;24322;52.004;5.948;2022-08-19T08:27:46;52.75;;;34.78;;
38549;SDS011;24322;52.004;5.948;2022-08-19T08:30:15;54.53;;;34.47;;
38549;SDS011;24322;52.004;5.948;2022-08-19T08:32:46;56.63;;;35.33;;
38549;SDS011;24322;52.004;5.948;2022-08-19T08:35:14;52.58;;;33.50;;
38549;SDS011;24322;52.004;5.948;2022-08-19T08:37:41;52.28;;;34.78;;
38549;SDS011;24322;52.004;5.948;2022-08-19T08:40:22;48.20;;;31.75;;
38549;SDS011;24322;52.004;5.948;2022-08-19T08:43:49;48.13;;;31.88;;
38549;SDS011;24322;52.004;5.948;2022-08-19T08:51:25;41.85;;;29.92;;
38549;SDS011;24322;52.004;5.948;2022-08-19T08:54:13;36.63;;;25.15;;
38549;SDS011;24322;52.004;5.948;2022-08-19T08:56:43;31.88;;;22.27;;
38549;SDS011;24322;52.004;5.948;2022-08-19T08:59:33;35.50;;;24.42;;
38549;SDS011;24322;52.004;5.948;2022-08-19T09:01:59;24.75;;;17.80;;
38549;SDS011;24322;52.004;5.948;2022-08-19T09:04:25;26.20;;;16.52;;
38549;SDS011;24322;52.004;5.948;2022-08-19T09:09:35;31.85;;;19.90;;
38549;SDS011;24322;52.004;5.948;2022-08-19T09:15:12;31.50;;;20.25;;
38549;SDS011;24322;52.004;5.948;2022-08-19T09:17:39;22.83;;;16.38;;
38549;SDS011;24322;52.004;5.948;2022-08-19T09:22:37;25.73;;;16.83;;
38549;SDS011;24322;52.004;5.948;2022-08-19T09:25:05;21.77;;;14.95;;
38549;SDS011;24322;52.004;5.948;2022-08-19T09:27:32;29.60;;;19.35;;
38549;SDS011;24322;52.004;5.948;2022-08-19T09:29:58;26.30;;;18.45;;
38549;SDS011;24322;52.004;5.948;2022-08-19T09:32:24;29.85;;;18.50;;
38549;SDS011;24322;52.004;5.948;2022-08-19T09:34:50;27.80;;;17.80;;
38549;SDS011;24322;52.004;5.948;2022-08-19T09:37:19;25.60;;;18.00;;
38549;SDS011;24322;52.004;5.948;2022-08-19T09:39:46;24.50;;;16.58;;
38549;SDS011;24322;52.004;5.948;2022-08-19T09:42:12;27.30;;;16.75;;
38549;SDS011;24322;52.004;5.948;2022-08-19T09:44:39;24.25;;;14.93;;
38549;SDS011;24322;52.004;5.948;2022-08-19T09:47:06;22.95;;;15.98;;
38549;SDS011;24322;52.004;5.948;2022-08-19T09:49:33;22.85;;;14.80;;
38549;SDS011;24322;52.004;5.948;2022-08-19T09:51:59;25.35;;;16.75;;
38549;SDS011;24322;52.004;5.948;2022-08-19T09:54:25;23.27;;;15.10;;
38549;SDS011;24322;52.004;5.948;2022-08-19T09:56:51;28.58;;;20.23;;
38549;SDS011;24322;52.004;5.948;2022-08-19T09:59:20;29.98;;;18.25;;
38549;SDS011;24322;52.004;5.948;2022-08-19T10:01:45;26.73;;;18.50;;
38549;SDS011;24322;52.004;5.948;2022-08-19T10:04:11;26.67;;;17.75;;
38549;SDS011;24322;52.004;5.948;2022-08-19T10:06:38;28.05;;;17.48;;
38549;SDS011;24322;52.004;5.948;2022-08-19T10:09:05;22.73;;;14.60;;
38549;SDS011;24322;52.004;5.948;2022-08-19T10:11:33;23.75;;;15.18;;
38549;SDS011;24322;52.004;5.948;2022-08-19T10:14:00;22.05;;;13.95;;
38549;SDS011;24322;52.004;5.948;2022-08-19T10:16:26;24.02;;;14.35;;
38549;SDS011;24322;52.004;5.948;2022-08-19T10:18:52;25.38;;;15.38;;
38549;SDS011;24322;52.004;5.948;2022-08-19T10:21:20;23.08;;;12.70;;
38549;SDS011;24322;52.004;5.948;2022-08-19T10:23:51;25.20;;;14.83;;
38549;SDS011;24322;52.004;5.948;2022-08-19T10:26:21;24.17;;;12.88;;
38549;SDS011;24322;52.004;5.948;2022-08-19T10:28:49;21.63;;;12.52;;
38549;SDS011;24322;52.004;5.948;2022-08-19T10:31:17;18.73;;;10.73;;
38549;SDS011;24322;52.004;5.948;2022-08-19T10:33:45;16.55;;;10.68;;
38549;SDS011;24322;52.004;5.948;2022-08-19T10:36:13;19.27;;;11.15;;
38549;SDS011;24322;52.004;5.948;2022-08-19T10:38:44;16.83;;;10.87;;
38549;SDS011;24322;52.004;5.948;2022-08-19T10:41:12;18.05;;;10.93;;
38549;SDS011;24322;52.004;5.948;2022-08-19T10:43:49;17.05;;;10.90;;
38549;SDS011;24322;52.004;5.948;2022-08-19T10:46:17;22.70;;;12.98;;
38549;SDS011;24322;52.004;5.948;2022-08-19T10:48:44;20.70;;;11.98;;
38549;SDS011;24322;52.004;5.948;2022-08-19T10:51:10;22.67;;;15.38;;
38549;SDS011;24322;52.004;5.948;2022-08-19T10:53:55;24.42;;;14.52;;
38549;SDS011;24322;52.004;5.948;2022-08-19T10:56:20;26.60;;;13.35;;
38549;SDS011;24322;52.004;5.948;2022-08-19T10:59:05;21.75;;;13.48;;
38549;SDS011;24322;52.004;5.948;2022-08-19T11:01:32;23.70;;;13.25;;
38549;SDS011;24322;52.004;5.948;2022-08-19T11:04:02;23.40;;;14.15;;
38549;SDS011;24322;52.004;5.948;2022-08-19T11:06:29;22.90;;;13.55;;
38549;SDS011;24322;52.004;5.948;2022-08-19T11:08:57;23.60;;;14.45;;
38549;SDS011;24322;52.004;5.948;2022-08-19T11:11:25;28.85;;;16.02;;
38549;SDS011;24322;52.004;5.948;2022-08-19T11:13:51;20.70;;;12.23;;
38549;SDS011;24322;52.004;5.948;2022-08-19T11:16:19;22.70;;;13.57;;
38549;SDS011;24322;52.004;5.948;2022-08-19T11:18:51;22.50;;;13.95;;
38549;SDS011;24322;52.004;5.948;2022-08-19T11:21:20;18.33;;;11.48;;
38549;SDS011;24322;52.004;5.948;2022-08-19T11:23:52;27.00;;;14.45;;
38549;SDS011;24322;52.004;5.948;2022-08-19T11:26:20;21.35;;;12.05;;
38549;SDS011;24322;52.004;5.948;2022-08-19T11:28:46;18.77;;;10.95;;
38549;SDS011;24322;52.004;5.948;2022-08-19T11:31:18;21.15;;;13.27;;
38549;SDS011;24322;52.004;5.948;2022-08-19T11:33:45;22.02;;;14.13;;
38549;SDS011;24322;52.004;5.948;2022-08-19T11:36:11;19.65;;;11.57;;
38549;SDS011;24322;52.004;5.948;2022-08-19T11:38:37;22.73;;;13.60;;
38549;SDS011;24322;52.004;5.948;2022-08-19T11:41:05;19.05;;;10.80;;
38549;SDS011;24322;52.004;5.948;2022-08-19T11:43:35;20.15;;;12.18;;
38549;SDS011;24322;52.004;5.948;2022-08-19T11:46:05;19.55;;;12.13;;
38549;SDS011;24322;52.004;5.948;2022-08-19T11:48:32;19.83;;;12.15;;
38549;SDS011;24322;52.004;5.948;2022-08-19T11:50:58;18.17;;;12.48;;
38549;SDS011;24322;52.004;5.948;2022-08-19T11:53:24;20.88;;;12.27;;
38549;SDS011;24322;52.004;5.948;2022-08-19T11:55:53;21.80;;;12.80;;
38549;SDS011;24322;52.004;5.948;2022-08-19T11:58:20;22.20;;;11.63;;
38549;SDS011;24322;52.004;5.948;2022-08-19T12:00:47;18.98;;;10.82;;
38549;SDS011;24322;52.004;5.948;2022-08-19T12:03:13;19.13;;;10.38;;
38549;SDS011;24322;52.004;5.948;2022-08-19T12:05:39;18.85;;;11.38;;
38549;SDS011;24322;52.004;5.948;2022-08-19T12:08:05;17.65;;;10.38;;
38549;SDS011;24322;52.004;5.948;2022-08-19T12:10:32;19.13;;;11.05;;
38549;SDS011;24322;52.004;5.948;2022-08-19T12:12:58;22.60;;;12.38;;
38549;SDS011;24322;52.004;5.948;2022-08-19T12:15:25;19.30;;;10.52;;
38549;SDS011;24322;52.004;5.948;2022-08-19T12:17:52;18.92;;;12.57;;
38549;SDS011;24322;52.004;5.948;2022-08-19T12:20:21;17.92;;;9.43;;
38549;SDS011;24322;52.004;5.948;2022-08-19T12:22:47;14.95;;;8.77;;
38549;SDS011;24322;52.004;5.948;2022-08-19T12:25:13;14.35;;;8.70;;
38549;SDS011;24322;52.004;5.948;2022-08-19T12:27:39;13.05;;;8.07;;
38549;SDS011;24322;52.004;5.948;2022-08-19T12:30:06;16.95;;;9.63;;
38549;SDS011;24322;52.004;5.948;2022-08-19T12:32:33;14.65;;;8.20;;
38549;SDS011;24322;52.004;5.948;2022-08-19T12:34:59;15.68;;;9.40;;
38549;SDS011;24322;52.004;5.948;2022-08-19T12:37:26;16.98;;;9.63;;
38549;SDS011;24322;52.004;5.948;2022-08-19T12:39:51;16.17;;;9.20;;
38549;SDS011;24322;52.004;5.948;2022-08-19T12:42:17;19.40;;;11.80;;
38549;SDS011;24322;52.004;5.948;2022-08-19T12:44:43;18.80;;;13.13;;
38549;SDS011;24322;52.004;5.948;2022-08-19T12:47:10;20.30;;;13.52;;
38549;SDS011;24322;52.004;5.948;2022-08-19T12:49:37;18.50;;;12.13;;
38549;SDS011;24322;52.004;5.948;2022-08-19T12:52:04;18.75;;;12.05;;
38549;SDS011;24322;52.004;5.948;2022-08-19T12:54:32;18.10;;;11.10;;
38549;SDS011;24322;52.004;5.948;2022-08-19T12:56:58;20.20;;;14.15;;
38549;SDS011;24322;52.004;5.948;2022-08-19T12:59:24;21.90;;;12.85;;
38549;SDS011;24322;52.004;5.948;2022-08-19T13:01:50;17.02;;;11.43;;
38549;SDS011;24322;52.004;5.948;2022-08-19T13:04:16;16.98;;;8.98;;
38549;SDS011;24322;52.004;5.948;2022-08-19T13:06:42;17.17;;;11.65;;
38549;SDS011;24322;52.004;5.948;2022-08-19T13:09:08;20.85;;;11.32;;
38549;SDS011;24322;52.004;5.948;2022-08-19T13:11:34;16.13;;;10.52;;
38549;SDS011;24322;52.004;5.948;2022-08-19T13:14:01;15.98;;;10.48;;
38549;SDS011;24322;52.004;5.948;2022-08-19T13:16:28;21.55;;;13.57;;
38549;SDS011;24322;52.004;5.948;2022-08-19T13:18:55;19.70;;;11.25;;
38549;SDS011;24322;52.004;5.948;2022-08-19T13:21:22;17.20;;;11.68;;
38549;SDS011;24322;52.004;5.948;2022-08-19T13:23:52;15.85;;;9.57;;
38549;SDS011;24322;52.004;5.948;2022-08-19T13:26:19;21.80;;;12.48;;
38549;SDS011;24322;52.004;5.948;2022-08-19T13:28:46;18.42;;;11.43;;
38549;SDS011;24322;52.004;5.948;2022-08-19T13:31:31;19.75;;;12.38;;
38549;SDS011;24322;52.004;5.948;2022-08-19T13:34:17;19.02;;;13.80;;
38549;SDS011;24322;52.004;5.948;2022-08-19T13:36:45;20.70;;;10.82;;
38549;SDS011;24322;52.004;5.948;2022-08-19T13:39:11;18.63;;;10.93;;
38549;SDS011;24322;52.004;5.948;2022-08-19T13:41:40;16.25;;;10.32;;
38549;SDS011;24322;52.004;5.948;2022-08-19T13:44:12;16.98;;;10.02;;
38549;SDS011;24322;52.004;5.948;2022-08-19T13:46:39;17.73;;;11.73;;
38549;SDS011;24322;52.004;5.948;2022-08-19T13:49:04;17.00;;;11.50;;
38549;SDS011;24322;52.004;5.948;2022-08-19T13:51:30;15.43;;;8.57;;
38549;SDS011;24322;52.004;5.948;2022-08-19T13:53:55;13.93;;;8.10;;
38549;SDS011;24322;52.004;5.948;2022-08-19T13:56:21;17.50;;;11.45;;
38549;SDS011;24322;52.004;5.948;2022-08-19T13:58:47;15.13;;;10.00;;
38549;SDS011;24322;52.004;5.948;2022-08-19T14:01:12;16.95;;;10.35;;
38549;SDS011;24322;52.004;5.948;2022-08-19T14:03:44;17.42;;;11.82;;
38549;SDS011;24322;52.004;5.948;2022-08-19T14:06:10;17.20;;;10.25;;
38549;SDS011;24322;52.004;5.948;2022-08-19T14:08:35;14.25;;;9.68;;
38549;SDS011;24322;52.004;5.948;2022-08-19T14:11:04;18.60;;;11.43;;
38549;SDS011;24322;52.004;5.948;2022-08-19T14:13:30;15.77;;;9.05;;
38549;SDS011;24322;52.004;5.948;2022-08-19T14:15:57;17.45;;;12.13;;
38549;SDS011;24322;52.004;5.948;2022-08-19T14:18:23;21.40;;;14.48;;
38549;SDS011;24322;52.004;5.948;2022-08-19T14:20:49;16.38;;;10.85;;
38549;SDS011;24322;52.004;5.948;2022-08-19T14:23:15;18.63;;;11.52;;
38549;SDS011;24322;52.004;5.948;2022-08-19T14:25:41;19.65;;;13.15;;
38549;SDS011;24322;52.004;5.948;2022-08-19T14:28:08;15.35;;;11.15;;
38549;SDS011;24322;52.004;5.948;2022-08-19T14:30:34;22.08;;;13.27;;
38549;SDS011;24322;52.004;5.948;2022-08-19T14:33:03;18.40;;;11.95;;
38549;SDS011;24322;52.004;5.948;2022-08-19T14:35:30;17.50;;;11.52;;
38549;SDS011;24322;52.004;5.948;2022-08-19T14:38:00;18.27;;;12.02;;
38549;SDS011;24322;52.004;5.948;2022-08-19T14:40:28;16.60;;;11.73;;
38549;SDS011;24322;52.004;5.948;2022-08-19T14:43:01;16.95;;;10.85;;
38549;SDS011;24322;52.004;5.948;2022-08-19T14:45:33;17.50;;;11.70;;
38549;SDS011;24322;52.004;5.948;2022-08-19T14:48:01;18.80;;;11.77;;
38549;SDS011;24322;52.004;5.948;2022-08-19T14:50:27;19.00;;;12.57;;
38549;SDS011;24322;52.004;5.948;2022-08-19T14:53:00;20.75;;;14.45;;